Weather History for Pampa / Mesa Vista, TX

Change the Weather History Date:

Thursday, September 26, 2013

  Actual Average (KBGD) Record (KBGD)
Temperature  
Mean Temperature 80 °F 68 °F  
Max Temperature 96 °F 80 °F 97 °F (2013)
Min Temperature 64 °F 56 °F 37 °F (1970)
Degree Days  
Heating Degree Days 0 2  
Month to date heating degree days 15  
Since 1 July heating degree days 16  
Cooling Degree Days 15 5  
Month to date cooling degree days 217  
Year to date cooling degree days 1767  
Growing Degree Days 30 (Base 50)    
Moisture  
Dew Point 50 °F    
Average Humidity 38    
Maximum Humidity 64    
Minimum Humidity 17    
Precipitation  
Precipitation 0.00 in 0.07 in 0.57 in (1950)
Month to date precipitation 2.08  
Year to date precipitation 18.09  
Snow  
Snow 0.00 in - - ()
Month to date snowfall  
Since 1 July snowfall  
Since 1 September snowfall  
Snow Depth -    
Sea Level Pressure  
Sea Level Pressure 29.74 in    
Wind  
Wind Speed 18 mph (South)    
Max Wind Speed 30 mph    
Max Gust Speed 40 mph    
Visibility 10 miles    
Events      
T = Trace of Precipitation, MM = Missing Value Source: NWS Daily Summary

Daily Weather History Graph

Daily Weather History Graph

Search for Another Location

Airport:

Trip Planner

Search our weather history database for the weather conditions in past years. The results will help you decide how hot, cold, wet, or windy it might be!

Date:

Astronomy

Sep. 26, 2013 Rise Set
Actual Time 7:35 AM CDT 7:34 PM CDT
Civil Twilight 7:09 AM CDT 8:00 PM CDT
Nautical Twilight 6:40 AM CDT 8:29 PM CDT
Astronomical Twilight 6:10 AM CDT 8:59 PM CDT
Moon No Moon Rise 2:19 PM CDT (9/26)
Length of Visible Light 12h 50m
Length of Day
11h 59m
Waning Gibbous, 54% of the Moon is Illuminated
Sep 26
Waning Gibbous
Sep 26
Last Quarter
Oct 4
New
Oct 11
First Quarter
Oct 18
Full

Hourly Weather History & Observations

Time (CDT) Temp. Heat Index Dew Point Humidity Pressure Visibility Wind Dir Wind Speed Gust Speed Precip Events Conditions
12:15 AM 77.0 °F - 42.8 °F 29% 29.73 in 10.0 mi South 21.9 mph 28.8 mph N/A   Clear
12:35 AM 75.2 °F - 42.8 °F 31% 29.72 in 10.0 mi South 20.7 mph 31.1 mph N/A   Clear
12:55 AM 73.4 °F - 42.8 °F 33% 29.72 in 10.0 mi South 20.7 mph 27.6 mph N/A   Clear
1:15 AM 73.4 °F - 42.8 °F 33% 29.72 in 10.0 mi South 17.3 mph 25.3 mph N/A   Clear
1:35 AM 71.6 °F - 44.6 °F 38% 29.71 in 10.0 mi South 16.1 mph 20.7 mph N/A   Clear
1:55 AM 71.6 °F - 44.6 °F 38% 29.71 in 10.0 mi South 15.0 mph 21.9 mph N/A   Clear
2:15 AM 71.6 °F - 44.6 °F 38% 29.70 in 10.0 mi South 19.6 mph 24.2 mph N/A   Clear
2:35 AM 73.4 °F - 44.6 °F 36% 29.70 in 10.0 mi South 21.9 mph 27.6 mph N/A   Clear
2:55 AM 71.6 °F - 44.6 °F 38% 29.71 in 10.0 mi South 20.7 mph 28.8 mph N/A   Clear
3:15 AM 73.4 °F - 46.4 °F 38% 29.71 in 10.0 mi South 23.0 mph 29.9 mph N/A   Clear
3:35 AM 73.4 °F - 48.2 °F 41% 29.71 in 10.0 mi South 20.7 mph 35.7 mph N/A   Clear
3:55 AM 71.6 °F - 48.2 °F 43% 29.71 in 10.0 mi SSW 21.9 mph 28.8 mph N/A   Clear
4:15 AM 71.6 °F - 48.2 °F 43% 29.72 in 10.0 mi SSW 16.1 mph 24.2 mph N/A   Clear
4:35 AM 69.8 °F - 50.0 °F 49% 29.72 in 10.0 mi SSW 16.1 mph - N/A   Clear
4:55 AM 69.8 °F - 50.0 °F 49% 29.72 in 10.0 mi SSW 12.7 mph - N/A   Clear
5:15 AM 68.0 °F - 50.0 °F 52% 29.73 in 10.0 mi West 6.9 mph - N/A   Clear
5:35 AM 66.2 °F - 50.0 °F 56% 29.73 in 10.0 mi WSW 8.1 mph - N/A   Clear
5:55 AM 68.0 °F - 51.8 °F 56% 29.73 in 10.0 mi SW 10.4 mph - N/A   Clear
6:15 AM 68.0 °F - 51.8 °F 56% 29.73 in 10.0 mi SSW 10.4 mph - N/A   Clear
6:35 AM 68.0 °F - 51.8 °F 56% 29.74 in 10.0 mi SSW 12.7 mph - N/A   Clear
6:55 AM 68.0 °F - 51.8 °F 56% 29.75 in 10.0 mi SSW 8.1 mph - N/A   Clear
7:15 AM 64.4 °F - 51.8 °F 64% 29.75 in 10.0 mi West 8.1 mph - N/A   Clear
7:35 AM 68.0 °F - 53.6 °F 60% 29.76 in 10.0 mi SSW 12.7 mph - N/A   Clear
7:55 AM 68.0 °F - 53.6 °F 60% 29.76 in 10.0 mi SSW 10.4 mph - N/A   Clear
8:15 AM 68.0 °F - 53.6 °F 60% 29.77 in 10.0 mi SW 10.4 mph - N/A   Clear
8:35 AM 69.8 °F - 53.6 °F 56% 29.78 in 10.0 mi SSW 10.4 mph - N/A   Clear
8:55 AM 69.8 °F - 53.6 °F 56% 29.78 in 10.0 mi SSW 12.7 mph - N/A   Clear
9:15 AM 71.6 °F - 53.6 °F 53% 29.79 in 10.0 mi SSW 11.5 mph 17.3 mph N/A   Clear
9:35 AM 73.4 °F - 53.6 °F 50% 29.79 in 10.0 mi SSW 12.7 mph - N/A   Clear
9:55 AM 75.2 °F - 53.6 °F 47% 29.79 in 10.0 mi SSW 18.4 mph - N/A   Clear
10:15 AM 77.0 °F - 53.6 °F 44% 29.79 in 10.0 mi SSW 18.4 mph 24.2 mph N/A   Clear
10:35 AM 78.8 °F - 53.6 °F 42% 29.79 in 10.0 mi SSW 16.1 mph - N/A   Clear
10:55 AM 80.6 °F - 51.8 °F 37% 29.79 in 10.0 mi SSW 17.3 mph 25.3 mph N/A   Clear
11:15 AM 82.4 °F - 51.8 °F 35% 29.79 in 10.0 mi SSW 19.6 mph 25.3 mph N/A   Clear
11:35 AM 82.4 °F - 51.8 °F 35% 29.79 in 10.0 mi SSW 16.1 mph 27.6 mph N/A   Clear
11:55 AM 86.0 °F - 51.8 °F 31% 29.79 in 10.0 mi SW 17.3 mph 24.2 mph N/A   Clear
12:15 PM 86.0 °F - 51.8 °F 31% 29.78 in 10.0 mi SSW 18.4 mph 23.0 mph N/A   Clear
12:35 PM 87.8 °F - 51.8 °F 29% 29.78 in 10.0 mi South 15.0 mph 19.6 mph N/A   Clear
12:55 PM 89.6 °F - 51.8 °F 27% 29.77 in 10.0 mi SSW 15.0 mph 20.7 mph N/A   Clear
1:15 PM 91.4 °F - 50.0 °F 24% 29.76 in 10.0 mi SW 13.8 mph 19.6 mph N/A   Clear
1:35 PM 91.4 °F - 50.0 °F 24% 29.76 in 10.0 mi SSW 13.8 mph - N/A   Clear
1:55 PM 93.2 °F - 48.2 °F 21% 29.75 in 10.0 mi SSW 12.7 mph 21.9 mph N/A   Clear
2:15 PM 95.0 °F - 46.4 °F 19% 29.74 in 10.0 mi SW 15.0 mph 27.6 mph N/A   Clear
2:35 PM 95.0 °F - 46.4 °F 19% 29.74 in 10.0 mi SSW 17.3 mph 25.3 mph N/A   Clear
2:55 PM 95.0 °F - 46.4 °F 19% 29.73 in 10.0 mi SW 20.7 mph 26.5 mph N/A   Clear
3:15 PM 96.8 °F - 44.6 °F 17% 29.72 in 10.0 mi SW 19.6 mph 31.1 mph N/A   Scattered Clouds
3:35 PM 96.8 °F - 44.6 °F 17% 29.72 in 10.0 mi SW 20.7 mph 29.9 mph N/A   Clear
3:55 PM 95.0 °F - 46.4 °F 19% 29.72 in 10.0 mi SSW 23.0 mph 34.5 mph N/A   Scattered Clouds
4:15 PM 96.8 °F - 48.2 °F 19% 29.72 in 10.0 mi SSW 19.6 mph 25.3 mph N/A   Scattered Clouds
4:35 PM 93.2 °F 90.8 °F 53.6 °F 26% 29.72 in 10.0 mi South 17.3 mph 25.3 mph N/A   Scattered Clouds
4:55 PM 89.6 °F - 51.8 °F 27% 29.71 in 10.0 mi SSE 23.0 mph 29.9 mph N/A   Mostly Cloudy
5:15 PM 89.6 °F - 51.8 °F 27% 29.72 in 10.0 mi SSE 21.9 mph 28.8 mph N/A   Scattered Clouds
5:35 PM 89.6 °F - 51.8 °F 27% 29.71 in 10.0 mi SSE 21.9 mph 31.1 mph N/A   Scattered Clouds
5:55 PM 89.6 °F - 51.8 °F 27% 29.71 in 10.0 mi SSE 21.9 mph 31.1 mph N/A   Scattered Clouds
6:15 PM 89.6 °F 87.3 °F 53.6 °F 29% 29.71 in 10.0 mi SSE 23.0 mph 34.5 mph N/A   Scattered Clouds
6:35 PM 87.8 °F 85.7 °F 53.6 °F 31% 29.71 in 10.0 mi SSE 20.7 mph 29.9 mph N/A   Scattered Clouds
6:55 PM 87.8 °F - 51.8 °F 29% 29.71 in 10.0 mi SSE 19.6 mph 31.1 mph N/A   Mostly Cloudy
7:15 PM 87.8 °F - 51.8 °F 29% 29.72 in 10.0 mi SSE 21.9 mph 29.9 mph N/A   Scattered Clouds
7:35 PM 86.0 °F - 51.8 °F 31% 29.72 in 10.0 mi SSE 23.0 mph 31.1 mph N/A   Scattered Clouds
7:55 PM 86.0 °F - 51.8 °F 31% 29.72 in 10.0 mi SSE 25.3 mph 32.2 mph N/A   Scattered Clouds
8:15 PM 84.2 °F - 51.8 °F 33% 29.73 in 10.0 mi SSE 19.6 mph 32.2 mph N/A   Scattered Clouds
8:35 PM 84.2 °F - 51.8 °F 33% 29.73 in 10.0 mi SSE 24.2 mph 32.2 mph N/A   Scattered Clouds
8:55 PM 82.4 °F - 51.8 °F 35% 29.74 in 10.0 mi SSE 28.8 mph 36.8 mph N/A   Scattered Clouds
9:15 PM 82.4 °F - 51.8 °F 35% 29.75 in 10.0 mi SSE 28.8 mph 39.1 mph N/A   Mostly Cloudy
9:35 PM 80.6 °F - 51.8 °F 37% 29.75 in 10.0 mi SSE 27.6 mph 40.3 mph N/A   Scattered Clouds
9:55 PM 80.6 °F - 51.8 °F 37% 29.75 in 10.0 mi SSE 29.9 mph 35.7 mph N/A   Clear
10:15 PM 80.6 °F - 51.8 °F 37% 29.76 in 10.0 mi SSE 28.8 mph 38.0 mph N/A   Clear
10:35 PM 78.8 °F - 53.6 °F 42% 29.76 in 10.0 mi SSE 29.9 mph 39.1 mph N/A   Clear
10:55 PM 78.8 °F - 53.6 °F 42% 29.77 in 10.0 mi SSE 25.3 mph 36.8 mph N/A   Clear
11:15 PM 77.0 °F - 53.6 °F 44% 29.78 in 10.0 mi SSE 28.8 mph 35.7 mph N/A   Clear
11:35 PM 77.0 °F - 53.6 °F 44% 29.79 in 10.0 mi South 26.5 mph 34.5 mph N/A   Clear
11:55 PM 77.0 °F - 53.6 °F 44% 29.79 in 10.0 mi SSE 24.2 mph 35.7 mph N/A   Clear